createdAt,value
2022-08-02T00:00:28.484Z,100310.59
2022-08-02T00:01:01.945Z,100313.34
2022-08-02T00:01:35.568Z,100320.44
2022-08-02T00:02:07.347Z,100305.94
2022-08-02T00:02:38.952Z,100307.06
2022-08-02T00:03:19.200Z,100309.78
2022-08-02T00:03:53.558Z,100305.13
2022-08-02T00:04:31.947Z,100293.38
2022-08-02T00:05:05.800Z,100305.13
2022-08-02T00:05:40.237Z,100301.28
2022-08-02T00:06:15.612Z,100298.56
2022-08-02T00:06:49.066Z,100302.91
2022-08-02T00:07:27.155Z,100302.91
2022-08-02T00:08:06.916Z,100302.09
2022-08-02T00:08:45.806Z,100304.53
2022-08-02T00:09:21.300Z,100301.81
2022-08-02T00:09:57.456Z,100299.06
2022-08-02T00:10:31.845Z,100298.25
2022-08-02T00:11:06.971Z,100304.53
2022-08-02T00:11:43.911Z,100297.97
2022-08-02T00:12:17.970Z,100300.69
2022-08-02T00:12:49.716Z,100297.97
2022-08-02T00:13:23.006Z,100299.06
2022-08-02T00:14:01.027Z,100297.16
2022-08-02T00:14:37.483Z,100297.16
2022-08-02T00:15:16.461Z,100296.03
2022-08-02T00:16:16.945Z,100297.16
2022-08-02T00:16:53.883Z,100304.53
2022-08-02T00:17:28.265Z,100297.97
2022-08-02T00:18:02.278Z,100301.00
2022-08-02T00:18:36.664Z,100305.34
2022-08-02T00:19:08.225Z,100301.00
2022-08-02T00:19:56.656Z,100301.81
2022-08-02T00:20:30.638Z,100299.06
2022-08-02T00:21:06.204Z,100301.81
2022-08-02T00:21:38.031Z,100301.00
2022-08-02T00:22:15.081Z,100302.63
2022-08-02T00:22:49.115Z,100299.06
2022-08-02T00:23:28.096Z,100296.34
2022-08-02T00:24:29.440Z,100295.22
2022-08-02T00:25:03.263Z,100295.22
2022-08-02T00:25:54.898Z,100293.31
2022-08-02T00:26:36.482Z,100296.03
2022-08-02T00:27:10.501Z,100296.03
2022-08-02T00:27:48.233Z,100300.69
2022-08-02T00:28:30.125Z,100300.69
2022-08-02T00:29:07.443Z,100297.97
2022-08-02T00:29:52.656Z,100300.69
2022-08-02T00:30:27.867Z,100296.34
2022-08-02T00:31:04.111Z,100299.06
2022-08-02T00:31:37.634Z,100304.53
2022-08-02T00:32:09.589Z,100302.91
2022-08-02T00:32:59.572Z,100302.91
2022-08-02T00:34:28.373Z,100311.94
2022-08-02T00:34:32.006Z,100312.75
2022-08-02T00:35:11.227Z,100309.50
2022-08-02T00:35:51.375Z,100311.41
2022-08-02T00:36:25.133Z,100310.59
2022-08-02T00:36:59.041Z,100312.50
2022-08-02T00:37:33.776Z,100314.44
2022-08-02T00:38:09.792Z,100314.44
2022-08-02T00:38:50.686Z,100325.38
2022-08-02T00:39:35.087Z,100319.91
2022-08-02T00:40:12.450Z,100317.16
2022-08-02T00:40:53.304Z,100319.63
2022-08-02T00:41:31.460Z,100321.53
2022-08-02T00:42:09.212Z,100322.63
2022-08-02T00:42:51.981Z,100318.81
2022-08-02T00:43:35.968Z,100319.91
2022-08-02T00:44:21.313Z,100325.09
2022-08-02T00:44:57.187Z,100323.44
2022-08-02T00:46:02.599Z,100319.09
2022-08-02T00:46:33.132Z,100322.63
2022-08-02T00:47:19.415Z,100321.81
2022-08-02T00:47:57.374Z,100315.53
2022-08-02T00:48:35.270Z,100321.31
2022-08-02T00:49:11.403Z,100319.38
2022-08-02T00:49:57.817Z,100313.09
2022-08-02T00:50:34.036Z,100316.66
2022-08-02T00:51:07.166Z,100320.50
2022-08-02T00:52:03.087Z,100315.31
2022-08-02T00:52:42.592Z,100313.38
2022-08-02T00:53:18.803Z,100316.13
2022-08-02T00:53:51.500Z,100316.13
2022-08-02T00:54:36.073Z,100306.28
2022-08-02T00:55:17.367Z,100313.38
2022-08-02T00:55:53.603Z,100311.75
2022-08-02T00:56:51.212Z,100312.56
2022-08-02T00:57:31.561Z,100299.19
2022-08-02T00:58:06.362Z,100302.75
2022-08-02T00:58:46.054Z,100299.19
2022-08-02T00:59:23.532Z,100300.81
2022-08-02T01:00:11.052Z,100302.75
2022-08-02T01:00:49.862Z,100301.94
2022-08-02T01:01:28.215Z,100299.19
2022-08-02T01:02:00.037Z,100303.03
2022-08-02T01:02:40.207Z,100296.75
2022-08-02T01:03:14.740Z,100295.66
2022-08-02T01:03:50.960Z,100303.03
2022-08-02T01:04:31.477Z,100295.94
2022-08-02T01:05:03.861Z,100296.75
2022-08-02T01:06:09.945Z,100301.41
2022-08-02T01:06:39.451Z,100294.31
2022-08-02T01:07:19.747Z,100304.44
2022-08-02T01:07:56.661Z,100300.88
2022-08-02T01:08:32.057Z,100302.81
2022-08-02T01:09:07.422Z,100293.78
2022-08-02T01:09:41.385Z,100308.28
2022-08-02T01:10:19.535Z,100296.53
2022-08-02T01:10:54.962Z,100301.19
2022-08-02T01:11:32.879Z,100301.19
2022-08-02T01:12:55.926Z,100299.56
2022-08-02T01:13:29.905Z,100298.75
2022-08-02T01:14:04.323Z,100305.03
2022-08-02T01:14:38.102Z,100305.84
2022-08-02T01:15:13.417Z,100300.66
2022-08-02T01:15:52.123Z,100307.75
2022-08-02T01:16:34.067Z,100306.13
2022-08-02T01:17:09.334Z,100298.75
2022-08-02T01:17:52.881Z,100305.31
2022-08-02T01:18:26.681Z,100308.03
2022-08-02T01:19:01.981Z,100302.56
2022-08-02T01:19:43.316Z,100303.69
2022-08-02T01:21:22.633Z,100311.88
2022-08-02T01:21:59.370Z,100311.88
2022-08-02T01:22:59.629Z,100309.16
2022-08-02T01:23:31.133Z,100314.91
2022-08-02T01:24:18.585Z,100311.34
2022-08-02T01:24:57.407Z,100313.28
2022-08-02T01:25:33.212Z,100305.38
2022-08-02T01:26:10.297Z,100312.47
2022-08-02T01:26:44.228Z,100313.28
2022-08-02T01:27:24.866Z,100310.03
2022-08-02T01:28:09.143Z,100313.56
2022-08-02T01:28:44.390Z,100313.56
2022-08-02T01:29:20.114Z,100310.03
2022-08-02T01:29:53.387Z,100316.31
2022-08-02T01:30:28.023Z,100311.66
2022-08-02T01:31:11.584Z,100310.84
2022-08-02T01:31:49.019Z,100297.47
2022-08-02T01:32:22.431Z,100302.94
2022-08-02T01:32:58.823Z,100299.91
2022-08-02T01:33:35.843Z,100305.38
2022-08-02T01:34:08.862Z,100301.53
2022-08-02T01:34:47.151Z,100303.16
2022-08-02T01:35:21.220Z,100305.06
2022-08-02T01:35:54.491Z,100305.06
2022-08-02T01:36:29.717Z,100303.16
2022-08-02T01:37:03.487Z,100306.72
2022-08-02T01:37:42.279Z,100304.78
2022-08-02T01:38:22.177Z,100309.44
2022-08-02T01:38:54.906Z,100307.53
2022-08-02T01:39:32.127Z,100300.13
2022-08-02T01:40:09.650Z,100306.41
2022-08-02T01:40:44.897Z,100306.41
2022-08-02T01:41:16.717Z,100300.94
2022-08-02T01:41:48.445Z,100300.94
2022-08-02T01:42:34.201Z,100298.22
2022-08-02T01:43:08.671Z,100304.50
2022-08-02T01:43:48.989Z,100302.06
2022-08-02T01:44:27.602Z,100295.47
2022-08-02T01:45:01.993Z,100311.06
2022-08-02T01:45:37.599Z,100298.50
2022-08-02T01:46:15.125Z,100296.59
2022-08-02T01:46:49.739Z,100299.31
2022-08-02T01:47:26.110Z,100298.50
2022-08-02T01:47:59.332Z,100296.59
2022-08-02T01:48:31.105Z,100300.13
2022-08-02T01:49:03.910Z,100293.84
2022-08-02T01:49:40.058Z,100294.97
2022-08-02T01:50:13.711Z,100297.69
2022-08-02T01:50:47.091Z,100301.25
2022-08-02T01:51:21.194Z,100294.97
2022-08-02T01:51:53.934Z,100303.16
2022-08-02T01:52:28.576Z,100303.16
2022-08-02T01:53:03.994Z,100307.00
2022-08-02T01:53:35.714Z,100310.53
2022-08-02T01:54:07.585Z,100304.25
2022-08-02T01:54:43.399Z,100297.97
2022-08-02T01:55:21.766Z,100299.91
2022-08-02T01:56:05.590Z,100296.06
2022-08-02T01:56:38.382Z,100299.91
2022-08-02T01:57:16.680Z,100298.28
2022-08-02T01:57:48.488Z,100304.56
2022-08-02T01:58:25.354Z,100294.72
2022-08-02T01:59:00.723Z,100296.34
2022-08-02T01:59:53.295Z,100302.13
2022-08-02T02:00:25.137Z,100293.09
2022-08-02T02:01:00.538Z,100295.84
2022-08-02T02:01:35.066Z,100304.03
2022-08-02T02:02:06.893Z,100295.00
2022-08-02T02:02:41.299Z,100293.91
2022-08-02T02:03:24.000Z,100290.38
2022-08-02T02:03:55.712Z,100283.28
2022-08-02T02:04:39.576Z,100282.47
2022-08-02T02:05:14.083Z,100297.75
2022-08-02T02:05:51.011Z,100284.38
2022-08-02T02:06:28.049Z,100291.47
2022-08-02T02:06:59.672Z,100290.66
2022-08-02T02:07:36.000Z,100285.19
2022-08-02T02:08:11.627Z,100292.56
2022-08-02T02:08:51.937Z,100285.19
2022-08-02T02:09:33.155Z,100287.91
2022-08-02T02:10:10.403Z,100287.91
2022-08-02T02:10:43.541Z,100287.09
2022-08-02T02:12:10.073Z,100287.09
2022-08-02T02:12:13.988Z,100287.91
2022-08-02T02:12:48.206Z,100290.94
2022-08-02T02:13:33.341Z,100286.28
2022-08-02T02:14:09.095Z,100289.03
2022-08-02T02:14:49.185Z,100281.94
2022-08-02T02:15:23.766Z,100287.09
2022-08-02T02:15:59.483Z,100286.28
2022-08-02T02:16:33.444Z,100290.94
2022-08-02T02:17:53.148Z,100289.03
2022-08-02T02:18:12.497Z,100286.28
2022-08-02T02:18:51.425Z,100283.56
2022-08-02T02:19:27.872Z,100288.22
2022-08-02T02:20:01.784Z,100289.84
2022-08-02T02:20:42.913Z,100285.47
2022-08-02T02:21:21.965Z,100283.56
2022-08-02T02:21:59.380Z,100283.56
2022-08-02T02:22:31.199Z,100283.56
2022-08-02T02:23:09.954Z,100280.81
2022-08-02T02:23:48.304Z,100280.81
2022-08-02T02:24:26.803Z,100275.38
2022-08-02T02:25:01.685Z,100280.81
2022-08-02T02:25:50.832Z,100282.75
2022-08-02T02:26:35.593Z,100280.81
2022-08-02T02:27:14.352Z,100278.91
2022-08-02T02:27:46.030Z,100280.00
2022-08-02T02:28:51.016Z,100277.28
2022-08-02T02:29:33.378Z,100278.91
2022-08-02T02:30:11.854Z,100283.56
2022-08-02T02:30:47.102Z,100272.63
2022-08-02T02:31:19.108Z,100289.56
2022-08-02T02:31:52.839Z,100277.00
2022-08-02T02:32:26.606Z,100282.47
2022-08-02T02:33:02.781Z,100275.06
2022-08-02T02:33:37.563Z,100281.34
2022-08-02T02:35:01.714Z,100277.00
2022-08-02T02:35:37.350Z,100272.63
2022-08-02T02:36:17.705Z,100273.44
2022-08-02T02:36:51.282Z,100278.91
2022-08-02T02:37:22.881Z,100269.91
2022-08-02T02:37:57.455Z,100274.25
2022-08-02T02:38:32.169Z,100272.63
2022-08-02T02:39:13.631Z,100271.53
2022-08-02T02:39:49.815Z,100266.88
2022-08-02T02:40:26.266Z,100266.06
2022-08-02T02:40:57.833Z,100266.88
2022-08-02T02:41:29.346Z,100263.31
2022-08-02T02:42:14.329Z,100267.69
2022-08-02T02:42:58.699Z,100267.69
2022-08-02T02:43:33.200Z,100272.34
2022-08-02T02:44:18.280Z,100266.06
2022-08-02T02:44:50.026Z,100268.78
2022-08-02T02:45:21.571Z,100269.91
2022-08-02T02:46:10.197Z,100269.91
2022-08-02T02:46:41.634Z,100264.44
2022-08-02T02:47:13.353Z,100263.63
2022-08-02T02:47:44.979Z,100268.25
2022-08-02T02:48:38.282Z,100261.69
2022-08-02T02:49:25.656Z,100260.06
2022-08-02T02:49:57.517Z,100264.72
2022-08-02T02:50:31.173Z,100261.16
2022-08-02T02:51:03.974Z,100260.34
2022-08-02T02:51:40.420Z,100260.34
2022-08-02T02:52:16.864Z,100261.16
2022-08-02T02:52:50.909Z,100262.28
2022-08-02T02:53:22.571Z,100262.28
2022-08-02T02:54:31.041Z,100260.66
2022-08-02T02:54:51.274Z,100263.09
2022-08-02T02:55:29.408Z,100263.09
2022-08-02T02:56:16.476Z,100259.53
2022-08-02T02:56:54.472Z,100264.19
2022-08-02T02:57:29.600Z,100259.53
2022-08-02T02:58:05.394Z,100255.19
2022-08-02T02:58:39.889Z,100257.09
2022-08-02T02:59:12.801Z,100266.13
2022-08-02T02:59:49.783Z,100253.25
2022-08-02T03:00:25.813Z,100254.38
2022-08-02T03:01:07.131Z,100262.56
2022-08-02T03:01:57.382Z,100257.91
2022-08-02T03:02:32.395Z,100252.44
2022-08-02T03:03:15.209Z,100247.78
2022-08-02T03:03:55.444Z,100251.63
2022-08-02T03:05:16.242Z,100252.44
2022-08-02T03:05:49.571Z,100253.56
2022-08-02T03:06:27.672Z,100253.25
2022-08-02T03:07:00.442Z,100245.34
2022-08-02T03:07:35.282Z,100254.38
2022-08-02T03:08:16.766Z,100248.91
2022-08-02T03:09:00.781Z,100249.72
2022-08-02T03:09:40.354Z,100249.72
2022-08-02T03:10:16.375Z,100243.44
2022-08-02T03:10:54.294Z,100246.97
2022-08-02T03:11:31.290Z,100248.09
2022-08-02T03:12:06.443Z,100250.81
2022-08-02T03:12:38.181Z,100245.34
2022-08-02T03:13:12.219Z,100242.63
2022-08-02T03:13:52.321Z,100247.28
2022-08-02T03:14:28.130Z,100254.38
2022-08-02T03:15:13.419Z,100246.97
2022-08-02T03:15:49.912Z,100244.25
2022-08-02T03:16:23.572Z,100246.97
2022-08-02T03:17:00.620Z,100248.91
2022-08-02T03:17:39.002Z,100246.97
2022-08-02T03:18:13.794Z,100252.44
2022-08-02T03:18:49.597Z,100247.78
2022-08-02T03:19:24.066Z,100252.44
2022-08-02T03:20:09.034Z,100246.97
2022-08-02T03:20:43.861Z,100257.09
2022-08-02T03:21:17.137Z,100248.09
2022-08-02T03:21:57.501Z,100245.34
2022-08-02T03:22:33.850Z,100243.72
2022-08-02T03:23:12.092Z,100243.72
2022-08-02T03:23:44.100Z,100245.34
2022-08-02T03:24:27.799Z,100251.94
2022-08-02T03:25:00.234Z,100250.81
2022-08-02T03:25:45.467Z,100249.19
2022-08-02T03:26:22.783Z,100253.84
2022-08-02T03:26:57.198Z,100253.03
2022-08-02T03:27:55.253Z,100258.50
2022-08-02T03:28:29.260Z,100255.75
2022-08-02T03:29:15.953Z,100253.03
2022-08-02T03:29:48.753Z,100260.41
2022-08-02T03:30:29.673Z,100256.88
2022-08-02T03:31:01.449Z,100255.25
2022-08-02T03:31:38.399Z,100253.31
2022-08-02T03:32:14.989Z,100260.72
2022-08-02T03:32:50.769Z,100255.25
2022-08-02T03:33:26.007Z,100255.25
2022-08-02T03:34:04.365Z,100261.53
2022-08-02T03:34:42.864Z,100257.97
2022-08-02T03:35:25.431Z,100258.25
2022-08-02T03:36:04.430Z,100256.34
2022-08-02T03:36:40.031Z,100259.91
2022-08-02T03:37:18.945Z,100250.88
2022-08-02T03:38:00.664Z,100250.06
2022-08-02T03:38:37.563Z,100255.25
2022-08-02T03:39:11.161Z,100261.00
2022-08-02T03:39:52.948Z,100254.72
2022-08-02T03:40:26.285Z,100262.09
2022-08-02T03:41:15.806Z,100258.56
2022-08-02T03:42:06.096Z,100254.72
2022-08-02T03:42:47.034Z,100254.72
2022-08-02T03:43:21.469Z,100262.09
2022-08-02T03:43:57.599Z,100262.91
2022-08-02T03:44:35.642Z,100262.91
2022-08-02T03:45:10.480Z,100260.19
2022-08-02T03:45:46.735Z,100260.19
2022-08-02T03:46:26.237Z,100262.91
2022-08-02T03:47:03.843Z,100258.56
2022-08-02T03:47:44.490Z,100251.16
2022-08-02T03:48:34.224Z,100254.72
2022-08-02T03:49:10.572Z,100254.72
2022-08-02T03:49:46.444Z,100256.63
2022-08-02T03:50:26.943Z,100247.63
2022-08-02T03:51:16.552Z,100252.28
2022-08-02T03:51:48.236Z,100249.53
2022-08-02T03:52:27.945Z,100238.63
2022-08-02T03:53:01.685Z,100238.63
2022-08-02T03:53:35.898Z,100245.72
2022-08-02T03:54:11.980Z,100245.72
2022-08-02T03:54:47.450Z,100241.06
2022-08-02T03:55:25.986Z,100235.59
2022-08-02T03:56:04.959Z,100241.06
2022-08-02T03:56:45.222Z,100237.50
2022-08-02T03:57:22.169Z,100242.97
2022-08-02T03:58:06.280Z,100245.72
2022-08-02T03:58:38.004Z,100244.88
2022-08-02T03:59:11.354Z,100245.72
2022-08-02T03:59:43.604Z,100247.63
2022-08-02T04:00:18.717Z,100242.16
2022-08-02T04:00:50.505Z,100242.97
2022-08-02T04:01:29.085Z,100242.16
2022-08-02T04:02:02.460Z,100244.88
2022-08-02T04:02:36.977Z,100250.34
2022-08-02T04:03:19.782Z,100243.25
2022-08-02T04:03:53.203Z,100247.09
2022-08-02T04:04:29.561Z,100245.19
2022-08-02T04:05:12.152Z,100247.09
2022-08-02T04:06:00.780Z,100241.63
2022-08-02T04:06:39.852Z,100243.56
2022-08-02T04:08:34.327Z,100241.63
2022-08-02T04:08:35.615Z,100242.75
2022-08-02T04:09:08.565Z,100241.13
2022-08-02T04:09:48.380Z,100246.28
2022-08-02T04:11:11.238Z,100237.28
2022-08-02T04:11:30.312Z,100238.91
2022-08-02T04:12:05.605Z,100238.91
2022-08-02T04:12:39.117Z,100236.16
2022-08-02T04:13:11.603Z,100237.81
2022-08-02T04:13:57.220Z,100238.91
2022-08-02T04:14:36.656Z,100240.53
2022-08-02T04:15:11.050Z,100242.44
2022-08-02T04:15:44.494Z,100246.28
2022-08-02T04:16:19.926Z,100249.84
2022-08-02T04:17:01.090Z,100248.22
2022-08-02T04:17:59.458Z,100248.22
2022-08-02T04:18:57.230Z,100247.09
2022-08-02T04:19:34.954Z,100252.56
2022-08-02T04:20:07.733Z,100256.13
2022-08-02T04:20:39.674Z,100253.38
2022-08-02T04:21:15.219Z,100259.66
2022-08-02T04:21:52.583Z,100263.50
2022-08-02T04:22:24.315Z,100258.03
2022-08-02T04:22:58.990Z,100264.31
2022-08-02T04:23:52.337Z,100263.50
2022-08-02T04:24:30.791Z,100258.03
2022-08-02T04:25:09.508Z,100264.59
2022-08-02T04:25:54.880Z,100263.50
2022-08-02T04:26:31.946Z,100263.50
2022-08-02T04:27:49.938Z,100265.13
2022-08-02T04:28:16.907Z,100263.50
2022-08-02T04:28:59.828Z,100266.22
2022-08-02T04:29:32.456Z,100259.66
2022-08-02T04:30:06.935Z,100258.03
2022-08-02T04:30:42.714Z,100264.31
2022-08-02T04:31:14.585Z,100258.03
2022-08-02T04:31:46.289Z,100255.31
2022-08-02T04:32:21.032Z,100251.75
2022-08-02T04:32:58.511Z,100259.94
2022-08-02T04:33:32.116Z,100258.03
2022-08-02T04:34:15.311Z,100260.78
2022-08-02T04:35:17.732Z,100267.34
2022-08-02T04:35:47.038Z,100259.94
2022-08-02T04:36:31.093Z,100272.00
2022-08-02T04:37:10.420Z,100266.81
2022-08-02T04:38:09.913Z,100265.72
2022-08-02T04:38:39.479Z,100267.09
2022-08-02T04:39:15.125Z,100270.66
2022-08-02T04:39:53.520Z,100275.59
2022-08-02T04:40:27.325Z,100265.75
2022-08-02T04:41:10.464Z,100275.88
2022-08-02T04:41:49.171Z,100267.97
2022-08-02T04:42:27.177Z,100272.34
2022-08-02T04:43:08.223Z,100271.81
2022-08-02T04:43:45.933Z,100267.97
2022-08-02T04:44:27.532Z,100269.88
2022-08-02T04:45:01.670Z,100273.44
2022-08-02T04:45:34.866Z,100270.72
2022-08-02T04:46:16.887Z,100269.88
2022-08-02T04:46:52.623Z,100266.34
2022-08-02T04:48:23.781Z,100276.69
2022-08-02T04:49:04.864Z,100277.78
2022-08-02T04:49:41.014Z,100273.44
2022-08-02T04:50:22.885Z,100282.16
2022-08-02T04:50:55.581Z,100277.78
2022-08-02T04:51:38.072Z,100279.44
2022-08-02T04:52:12.875Z,100273.97
2022-08-02T04:52:51.061Z,100273.97
2022-08-02T04:53:26.953Z,100273.97
2022-08-02T04:54:26.595Z,100273.97
2022-08-02T04:55:04.343Z,100274.78
2022-08-02T04:55:37.594Z,100268.50
2022-08-02T04:56:17.432Z,100269.31
2022-08-02T04:56:57.895Z,100270.13
2022-08-02T04:57:33.631Z,100272.84
2022-08-02T04:58:37.054Z,100271.75
2022-08-02T04:59:02.602Z,100267.91
2022-08-02T05:00:55.520Z,100274.19
2022-08-02T05:01:31.697Z,100271.16
2022-08-02T05:02:07.504Z,100270.34
2022-08-02T05:02:43.128Z,100272.00
2022-08-02T05:03:19.993Z,100268.44
2022-08-02T05:04:05.353Z,100267.34
2022-08-02T05:04:38.142Z,100272.81
2022-08-02T05:05:12.644Z,100261.88
2022-08-02T05:05:47.036Z,100270.06
2022-08-02T05:06:21.459Z,100267.34
2022-08-02T05:06:57.071Z,100272.81
2022-08-02T05:07:31.196Z,100272.81
2022-08-02T05:08:09.806Z,100272.81
2022-08-02T05:08:52.899Z,100275.53
2022-08-02T05:09:26.507Z,100270.06
2022-08-02T05:10:08.588Z,100266.53
2022-08-02T05:10:40.262Z,100270.06
2022-08-02T05:11:11.893Z,100269.25
2022-08-02T05:11:55.085Z,100266.53
2022-08-02T05:12:31.531Z,100272.00
2022-08-02T05:13:03.114Z,100263.78
2022-08-02T05:13:36.375Z,100272.00
2022-08-02T05:14:29.350Z,100265.72
2022-08-02T05:15:03.956Z,100276.63
2022-08-02T05:15:40.545Z,100270.06
2022-08-02T05:16:19.563Z,100275.53
2022-08-02T05:16:51.561Z,100271.16
2022-08-02T05:17:27.313Z,100272.81
2022-08-02T05:18:10.275Z,100271.16
2022-08-02T05:18:47.110Z,100272.00
2022-08-02T05:19:20.291Z,100266.53
2022-08-02T05:19:52.006Z,100266.53
2022-08-02T05:20:28.643Z,100268.44
2022-08-02T05:21:03.107Z,100268.44
2022-08-02T05:21:37.627Z,100273.09
2022-08-02T05:22:14.074Z,100268.44
2022-08-02T05:23:00.109Z,100272.00
2022-08-02T05:23:34.710Z,100265.72
2022-08-02T05:24:11.538Z,100275.53
2022-08-02T06:44:47.951Z,100265.88
2022-08-02T06:45:31.830Z,100265.59
2022-08-02T06:47:09.331Z,100267.50
2022-08-02T06:47:22.375Z,100269.94
2022-08-02T06:48:10.349Z,100263.38
2022-08-02T06:49:58.087Z,100264.19
2022-08-02T06:50:46.732Z,100269.06
2022-08-02T06:51:37.996Z,100267.16
2022-08-02T06:52:28.322Z,100257.34
2022-08-02T06:53:14.381Z,100257.03
2022-08-02T06:54:07.783Z,100257.03
2022-08-02T06:54:56.939Z,100252.41
2022-08-02T06:55:47.282Z,100257.56
2022-08-02T06:56:37.438Z,100256.47
2022-08-02T06:57:28.821Z,100255.34
2022-08-02T06:58:16.742Z,100247.16
2022-08-02T06:59:11.063Z,100243.31
2022-08-02T07:00:01.389Z,100250.41
2022-08-02T07:00:57.883Z,100249.31
2022-08-02T07:01:50.968Z,100241.94
2022-08-02T07:02:40.295Z,100244.66
2022-08-02T07:03:32.733Z,100244.38
2022-08-02T07:04:24.032Z,100247.09
2022-08-02T07:05:11.599Z,100249.84
2022-08-02T07:06:02.097Z,100240.53
2022-08-02T07:06:54.569Z,100251.47
2022-08-02T07:07:44.753Z,100242.44
2022-08-02T07:09:56.569Z,100247.09
2022-08-02T07:10:46.376Z,100247.91
2022-08-02T07:11:36.017Z,100243.25
2022-08-02T07:12:28.175Z,100245.72
2022-08-02T07:13:18.329Z,100243.78
2022-08-02T07:14:07.480Z,100251.16
2022-08-02T07:15:02.785Z,100250.34
2022-08-02T07:15:52.119Z,100253.91
2022-08-02T07:16:42.323Z,100251.16
2022-08-02T07:17:30.966Z,100254.44
2022-08-02T07:18:19.207Z,100249.25
2022-08-02T07:19:09.035Z,100251.16
2022-08-02T07:20:07.702Z,100245.41
2022-08-02T07:20:59.352Z,100241.06
2022-08-02T07:21:56.621Z,100241.88
2022-08-02T07:22:46.438Z,100247.34
2022-08-02T07:24:44.485Z,100242.69
2022-08-02T07:26:03.555Z,100238.03
2022-08-02T07:27:01.454Z,100236.94
2022-08-02T07:27:44.433Z,100229.53
2022-08-02T07:28:29.285Z,100231.16
2022-08-02T07:29:15.029Z,100236.63
2022-08-02T07:29:58.323Z,100231.16
2022-08-02T07:30:46.596Z,100233.63
2022-08-02T07:31:34.176Z,100239.06
2022-08-02T07:32:22.200Z,100234.44
2022-08-02T07:33:37.001Z,100240.69
2022-08-02T07:34:18.483Z,100233.31
2022-08-02T07:35:07.015Z,100237.69
2022-08-02T07:35:52.684Z,100229.47
2022-08-02T07:36:50.047Z,100233.03
2022-08-02T07:37:55.435Z,100231.09
2022-08-02T07:38:48.503Z,100237.38
2022-08-02T07:39:38.952Z,100233.53
2022-08-02T07:41:48.685Z,100238.19
2022-08-02T07:42:36.847Z,100242.84
2022-08-02T07:43:22.687Z,100230.81
2022-08-02T07:44:14.024Z,100236.28
2022-08-02T07:46:00.969Z,100237.09
2022-08-02T07:46:51.033Z,100237.09
2022-08-02T07:47:39.694Z,100239.81
2022-08-02T07:48:26.752Z,100236.28
2022-08-02T07:49:14.946Z,100237.91
2022-08-02T07:50:04.353Z,100235.19
2022-08-02T07:50:50.002Z,100230.53
2022-08-02T07:51:39.604Z,100236.00
2022-08-02T07:52:25.603Z,100235.19
2022-08-02T07:53:13.122Z,100231.63
2022-08-02T07:54:02.656Z,100232.44
2022-08-02T07:54:48.105Z,100230.81
2022-08-02T07:55:39.309Z,100235.47
2022-08-02T07:56:31.236Z,100233.84
2022-08-02T07:57:20.482Z,100233.25
2022-08-02T07:58:11.013Z,100231.63
2022-08-02T07:58:59.659Z,100234.38
2022-08-02T07:59:49.873Z,100226.16
2022-08-02T08:00:41.436Z,100232.44
2022-08-02T08:01:25.851Z,100233.25
2022-08-02T08:02:17.116Z,100234.06
2022-08-02T08:03:08.874Z,100233.25
2022-08-02T08:03:58.102Z,100236.00
2022-08-02T08:04:50.276Z,100232.16
2022-08-02T08:05:42.905Z,100234.06
2022-08-02T08:06:28.838Z,100236.81
2022-08-02T08:07:13.651Z,100232.16
2022-08-02T08:08:03.184Z,100233.25
2022-08-02T08:08:53.035Z,100234.06
2022-08-02T08:09:41.034Z,100234.88
2022-08-02T08:10:24.812Z,100228.59
2022-08-02T08:12:27.362Z,100235.69
2022-08-02T08:13:19.998Z,100223.94
2022-08-02T08:14:12.142Z,100221.22
2022-08-02T08:15:00.761Z,100230.22
2022-08-02T08:15:51.895Z,100225.88
2022-08-02T08:16:37.237Z,100223.94
2022-08-02T08:18:52.084Z,100223.94
2022-08-02T08:19:51.152Z,100220.94
2022-08-02T08:20:38.577Z,100225.56
2022-08-02T08:21:26.966Z,100233.78
2022-08-02T08:22:28.490Z,100222.03
2022-08-02T08:23:21.412Z,100230.22
2022-08-02T08:24:11.518Z,100223.94
2022-08-02T08:25:00.535Z,100228.31
2022-08-02T08:25:45.904Z,100223.94
2022-08-02T08:26:44.380Z,100224.75
2022-08-02T08:27:33.213Z,100233.50
2022-08-02T08:28:19.032Z,100220.63
2022-08-02T08:29:06.875Z,100229.13
2022-08-02T08:29:57.207Z,100220.63
2022-08-02T08:31:59.368Z,100226.09
2022-08-02T08:32:47.378Z,100230.47
2022-08-02T08:33:34.473Z,100225.00
2022-08-02T08:34:24.473Z,100222.25
2022-08-02T08:35:17.653Z,100216.78
2022-08-02T08:36:02.733Z,100217.59
2022-08-02T08:36:51.054Z,100216.78
2022-08-02T08:38:02.033Z,100217.91
2022-08-02T08:39:59.002Z,100209.69
2022-08-02T08:40:42.407Z,100201.50
2022-08-02T08:45:08.967Z,100213.25
2022-08-02T08:45:45.754Z,100206.16
2022-08-02T08:46:31.441Z,100206.16
2022-08-02T08:47:07.619Z,100209.69
2022-08-02T08:47:46.750Z,100213.25
2022-08-02T08:48:31.118Z,100210.50
2022-08-02T08:49:07.858Z,100207.78
2022-08-02T08:49:52.314Z,100206.97
2022-08-02T08:50:28.685Z,100209.69
2022-08-02T08:51:05.285Z,100206.97
2022-08-02T08:51:41.908Z,100206.16
2022-08-02T08:52:18.531Z,100211.63
2022-08-02T08:52:55.148Z,100208.59
2022-08-02T08:53:36.479Z,100213.25
2022-08-02T08:54:12.678Z,100207.78
2022-08-02T08:54:51.300Z,100205.03
2022-08-02T08:55:27.115Z,100209.41
2022-08-02T08:56:04.093Z,100211.31
2022-08-02T08:56:40.591Z,100203.13
2022-08-02T08:57:17.832Z,100199.28
2022-08-02T08:57:54.492Z,100204.75
2022-08-02T08:58:30.953Z,100203.94
2022-08-02T08:59:08.377Z,100203.94
2022-08-02T08:59:49.931Z,100203.13
2022-08-02T09:00:26.652Z,100203.94
2022-08-02T09:01:03.839Z,100200.38
2022-08-02T09:01:49.908Z,100198.47
2022-08-02T09:02:28.245Z,100199.28
2022-08-02T09:03:04.884Z,100198.47
2022-08-02T09:03:41.372Z,100207.47
2022-08-02T09:04:18.971Z,100204.75
2022-08-02T09:04:55.841Z,100207.47
2022-08-02T09:05:33.863Z,100204.75
2022-08-02T09:06:10.652Z,100207.47
2022-08-02T09:06:47.979Z,100210.22
2022-08-02T09:07:24.072Z,100204.75
2022-08-02T09:08:00.973Z,100203.94
2022-08-02T09:08:37.393Z,100217.31
2022-08-02T09:09:14.670Z,100211.84
2022-08-02T09:09:51.463Z,100207.19
2022-08-02T09:10:29.170Z,100211.03
2022-08-02T09:11:05.785Z,100209.13
2022-08-02T09:11:42.457Z,100206.38
2022-08-02T09:12:19.541Z,100203.66
2022-08-02T09:12:57.048Z,100203.66
2022-08-02T09:13:45.264Z,100203.66
2022-08-02T09:14:21.842Z,100207.19
2022-08-02T09:14:57.925Z,100200.91
2022-08-02T09:15:34.353Z,100206.38
2022-08-02T09:16:14.020Z,100200.91
2022-08-02T09:16:50.558Z,100199.00
2022-08-02T09:17:26.181Z,100200.91
2022-08-02T09:18:03.162Z,100201.72
2022-08-02T09:18:39.865Z,100195.44
2022-08-02T09:19:16.765Z,100202.53
2022-08-02T09:20:02.147Z,100197.06
2022-08-02T09:20:38.778Z,100201.72
2022-08-02T09:21:16.153Z,100194.34